createdAt,value
2017-10-25T00:00:52.037Z,6.10
2017-10-25T00:03:19.584Z,5.90
2017-10-25T00:05:47.165Z,8.40
2017-10-25T00:08:14.716Z,6.33
2017-10-25T00:10:42.258Z,11.07
2017-10-25T00:13:09.887Z,6.57
2017-10-25T00:15:37.389Z,4.93
2017-10-25T00:18:04.974Z,6.13
2017-10-25T00:20:33.283Z,6.93
2017-10-25T00:23:00.822Z,5.70
2017-10-25T00:25:28.550Z,4.27
2017-10-25T00:27:56.219Z,4.40
2017-10-25T00:30:23.801Z,4.33
2017-10-25T00:32:51.353Z,5.90
2017-10-25T00:35:18.895Z,5.67
2017-10-25T00:37:47.986Z,10.77
2017-10-25T00:40:15.568Z,9.00
2017-10-25T00:42:43.244Z,3.33
2017-10-25T00:45:11.552Z,3.37
2017-10-25T00:47:39.089Z,3.40
2017-10-25T00:50:06.694Z,4.37
2017-10-25T00:52:34.238Z,5.40
2017-10-25T00:55:02.112Z,5.63
2017-10-25T00:57:29.637Z,4.40
2017-10-25T00:59:57.173Z,5.40
2017-10-25T01:02:24.757Z,4.00
2017-10-25T01:04:52.599Z,3.60
2017-10-25T01:07:20.957Z,4.40
2017-10-25T01:09:48.725Z,5.00
2017-10-25T01:12:16.421Z,3.97
2017-10-25T01:14:44.764Z,3.40
2017-10-25T01:17:12.307Z,5.03
2017-10-25T01:19:40.763Z,3.73
2017-10-25T01:22:08.301Z,6.17
2017-10-25T01:24:35.839Z,3.83
2017-10-25T01:27:03.418Z,3.43
2017-10-25T01:29:31.726Z,3.20
2017-10-25T01:31:59.710Z,2.97
2017-10-25T01:34:27.257Z,3.07
2017-10-25T01:36:54.818Z,3.57
2017-10-25T01:39:22.413Z,3.30
2017-10-25T01:41:49.958Z,5.40
2017-10-25T01:44:17.815Z,3.50
2017-10-25T01:46:45.521Z,4.17
2017-10-25T01:49:13.834Z,3.00
2017-10-25T01:51:41.413Z,4.03
2017-10-25T01:54:09.260Z,3.80
2017-10-25T01:56:36.886Z,6.57
2017-10-25T01:59:04.433Z,5.47
2017-10-25T02:01:32.736Z,4.63
2017-10-25T02:04:00.329Z,5.00
2017-10-25T02:06:27.886Z,6.03
2017-10-25T02:08:55.472Z,4.90
2017-10-25T02:11:23.023Z,5.43
2017-10-25T02:13:50.561Z,4.77
2017-10-25T02:16:18.136Z,5.00
2017-10-25T02:18:45.774Z,5.70
2017-10-25T02:21:13.369Z,6.83
2017-10-25T02:23:40.914Z,4.07
2017-10-25T02:26:08.447Z,6.33
2017-10-25T02:28:36.022Z,5.40
2017-10-25T02:31:03.559Z,5.50
2017-10-25T02:33:31.153Z,5.03
2017-10-25T02:35:58.699Z,5.30
2017-10-25T02:38:27.074Z,6.07
2017-10-25T02:40:54.671Z,5.60
2017-10-25T02:43:22.230Z,9.90
2017-10-25T02:45:51.823Z,8.27
2017-10-25T02:48:19.353Z,5.77
2017-10-25T02:50:46.907Z,5.60
2017-10-25T02:53:14.492Z,4.97
2017-10-25T02:55:42.058Z,7.10
2017-10-25T02:58:10.124Z,6.10
2017-10-25T03:00:37.669Z,5.27
2017-10-25T03:03:05.235Z,5.43
2017-10-25T03:05:32.817Z,5.50
2017-10-25T03:08:01.884Z,6.17
2017-10-25T03:10:29.858Z,6.83
2017-10-25T03:12:57.593Z,5.03
2017-10-25T03:15:25.128Z,6.50
2017-10-25T03:17:52.704Z,4.83
2017-10-25T03:20:20.269Z,7.23
2017-10-25T03:22:47.862Z,6.17
2017-10-25T03:25:15.402Z,5.70
2017-10-25T03:27:43.473Z,6.53
2017-10-25T03:30:11.060Z,7.93
2017-10-25T03:32:38.613Z,8.03
2017-10-25T03:35:06.205Z,5.63
2017-10-25T03:37:33.758Z,5.70
2017-10-25T03:40:01.730Z,5.10
2017-10-25T03:42:30.829Z,6.00
2017-10-25T03:44:58.373Z,8.80
2017-10-25T03:47:26.428Z,5.27
2017-10-25T03:49:53.964Z,5.07
2017-10-25T03:52:21.505Z,5.50
2017-10-25T03:54:49.112Z,4.60
2017-10-25T03:57:16.687Z,4.90
2017-10-25T03:59:44.282Z,11.33
2017-10-25T04:02:11.829Z,6.07
2017-10-25T04:07:14.081Z,5.67
2017-10-25T04:09:41.634Z,5.73
2017-10-25T04:12:09.546Z,4.70
2017-10-25T04:14:37.081Z,4.27
2017-10-25T04:17:04.656Z,5.27
2017-10-25T04:19:32.429Z,5.00
2017-10-25T04:22:00.738Z,7.23
2017-10-25T04:24:28.320Z,5.87
2017-10-25T04:26:55.873Z,8.20
2017-10-25T04:29:23.470Z,6.20
2017-10-25T04:31:51.048Z,4.40
2017-10-25T04:34:18.641Z,4.73
2017-10-25T04:36:46.637Z,8.83
2017-10-25T04:39:14.191Z,6.93
2017-10-25T04:41:41.847Z,4.87
2017-10-25T04:44:09.454Z,7.10
2017-10-25T04:46:37.765Z,7.93
2017-10-25T04:49:05.789Z,6.93
2017-10-25T04:51:33.636Z,5.93
2017-10-25T04:54:01.176Z,4.70
2017-10-25T04:56:28.776Z,5.30
2017-10-25T04:58:57.095Z,6.90
2017-10-25T05:01:24.690Z,4.90
2017-10-25T05:03:52.287Z,4.97
2017-10-25T05:06:19.834Z,5.70
2017-10-25T05:08:48.174Z,5.67
2017-10-25T05:11:15.737Z,12.80
2017-10-25T05:13:43.342Z,5.20
2017-10-25T05:16:10.886Z,4.60
2017-10-25T05:18:38.438Z,5.33
2017-10-25T05:21:06.028Z,5.03
2017-10-25T05:23:34.334Z,4.30
2017-10-25T05:26:02.322Z,8.00
2017-10-25T05:28:29.856Z,6.30
2017-10-25T05:30:57.399Z,6.70
2017-10-25T05:33:24.990Z,4.27
2017-10-25T05:35:52.565Z,4.67
2017-10-25T05:38:20.158Z,3.77
2017-10-25T05:40:47.710Z,5.07
2017-10-25T05:43:15.252Z,4.50
2017-10-25T05:45:42.823Z,5.50
2017-10-25T05:48:10.375Z,5.00
2017-10-25T05:50:37.969Z,4.20
2017-10-25T05:53:06.416Z,3.33
2017-10-25T05:55:33.951Z,4.13
2017-10-25T05:58:01.532Z,6.73
2017-10-25T06:00:29.078Z,4.20
2017-10-25T06:02:56.905Z,6.13
2017-10-25T06:05:24.438Z,5.63
2017-10-25T06:07:51.978Z,10.70
2017-10-25T06:10:19.566Z,5.80
2017-10-25T06:12:47.101Z,4.07
2017-10-25T06:15:14.700Z,4.20
2017-10-25T06:17:42.237Z,6.03
2017-10-25T06:20:10.542Z,5.60
2017-10-25T06:22:38.125Z,4.60
2017-10-25T06:25:05.726Z,4.50
2017-10-25T06:27:33.347Z,4.90
2017-10-25T06:30:00.926Z,7.60
2017-10-25T06:32:28.439Z,6.43
2017-10-25T06:34:56.033Z,5.90
2017-10-25T06:37:23.581Z,5.87
2017-10-25T06:39:51.186Z,4.90
2017-10-25T06:42:19.497Z,4.60
2017-10-25T06:44:47.040Z,5.77
2017-10-25T06:47:15.165Z,4.67
2017-10-25T06:49:42.713Z,4.97
2017-10-25T06:52:10.317Z,9.37
2017-10-25T06:54:38.614Z,5.07
2017-10-25T06:57:06.177Z,5.60
2017-10-25T06:59:33.777Z,5.40
2017-10-25T07:02:01.330Z,5.00
2017-10-25T07:04:28.937Z,5.73
2017-10-25T07:06:56.585Z,5.70
2017-10-25T07:09:24.134Z,5.40
2017-10-25T07:11:51.814Z,6.23
2017-10-25T07:14:20.130Z,5.10
2017-10-25T07:16:48.119Z,3.50
2017-10-25T07:19:15.733Z,4.80
2017-10-25T07:21:43.290Z,4.93
2017-10-25T07:24:11.636Z,5.90
2017-10-25T07:26:39.333Z,4.53
2017-10-25T07:29:06.929Z,3.27
2017-10-25T07:31:34.479Z,3.97
2017-10-25T07:34:02.025Z,4.03
2017-10-25T07:36:29.617Z,5.50
2017-10-25T07:38:57.187Z,4.30
2017-10-25T07:41:24.776Z,5.13
2017-10-25T07:43:53.094Z,4.37
2017-10-25T07:46:20.654Z,4.40
2017-10-25T07:48:48.247Z,3.77
2017-10-25T07:51:15.818Z,6.37
2017-10-25T07:53:43.421Z,5.07
2017-10-25T07:56:10.954Z,4.67
2017-10-25T07:58:39.254Z,3.23
2017-10-25T08:01:06.830Z,3.70
2017-10-25T08:03:34.383Z,3.00
2017-10-25T08:06:01.980Z,2.70
2017-10-25T08:08:29.538Z,3.10
2017-10-25T08:10:57.096Z,8.80
2017-10-25T08:13:24.696Z,2.40
2017-10-25T08:15:52.257Z,1.70
2017-10-25T08:18:20.022Z,4.80
2017-10-25T08:20:48.600Z,3.17
2017-10-25T08:23:16.138Z,5.40
2017-10-25T08:25:43.733Z,4.70
2017-10-25T08:28:11.284Z,2.00
2017-10-25T08:30:39.634Z,1.60
2017-10-25T08:33:07.950Z,1.83
2017-10-25T08:35:35.526Z,2.20
2017-10-25T08:38:03.103Z,2.53
2017-10-25T08:40:30.659Z,2.20
2017-10-25T08:42:58.266Z,8.87
2017-10-25T08:45:26.569Z,2.20
2017-10-25T08:47:54.112Z,3.43
2017-10-25T08:50:21.691Z,3.77
2017-10-25T08:52:49.236Z,6.33
2017-10-25T08:55:16.870Z,4.30
2017-10-25T08:57:44.427Z,2.70
2017-10-25T09:00:11.960Z,2.07
2017-10-25T09:02:39.725Z,3.57
2017-10-25T09:05:07.264Z,1.90
2017-10-25T09:07:34.847Z,3.17
2017-10-25T09:10:02.398Z,1.70
2017-10-25T09:12:29.942Z,2.10
2017-10-25T09:14:57.520Z,1.57
2017-10-25T09:17:25.062Z,4.50
2017-10-25T09:19:52.748Z,1.95
2017-10-25T09:22:21.366Z,1.87
2017-10-25T09:24:49.080Z,2.80
2017-10-25T09:27:16.661Z,4.80
2017-10-25T09:29:44.202Z,2.40
2017-10-25T09:32:12.282Z,1.53
2017-10-25T09:34:39.833Z,1.60
2017-10-25T09:37:07.398Z,6.97
2017-10-25T09:39:34.993Z,3.70
2017-10-25T09:42:02.548Z,5.73
2017-10-25T09:44:30.261Z,4.20
2017-10-25T09:46:57.820Z,3.10
2017-10-25T09:49:25.365Z,3.90
2017-10-25T09:51:52.953Z,2.93
2017-10-25T09:54:20.531Z,2.13
2017-10-25T09:56:48.134Z,2.23
2017-10-25T09:59:16.454Z,9.17
2017-10-25T10:01:44.021Z,1.57
2017-10-25T10:04:11.588Z,8.10
2017-10-25T10:06:39.125Z,3.90
2017-10-25T10:09:06.750Z,5.80
2017-10-25T10:11:34.486Z,2.13
2017-10-25T10:14:02.795Z,4.70
2017-10-25T10:16:30.443Z,1.40
2017-10-25T10:18:58.769Z,1.33
2017-10-25T10:21:26.635Z,1.60
2017-10-25T10:23:54.171Z,6.43
2017-10-25T10:26:21.742Z,3.90
2017-10-25T10:28:49.322Z,1.30
2017-10-25T10:31:16.918Z,2.27
2017-10-25T10:33:44.501Z,3.40
2017-10-25T10:36:12.155Z,3.73
2017-10-25T10:38:40.670Z,5.53
2017-10-25T10:41:08.255Z,2.47
2017-10-25T10:43:35.970Z,3.47
2017-10-25T10:46:03.602Z,3.70
2017-10-25T10:48:32.026Z,2.47
2017-10-25T10:50:59.577Z,9.93
2017-10-25T10:53:27.178Z,1.83
2017-10-25T10:55:54.755Z,2.13
2017-10-25T10:58:22.344Z,7.23
2017-10-25T11:00:50.653Z,5.67
2017-10-25T11:03:18.202Z,2.47
2017-10-25T11:05:46.042Z,4.87
2017-10-25T11:08:13.596Z,2.27
2017-10-25T11:10:41.946Z,2.33
2017-10-25T11:13:09.488Z,4.63
2017-10-25T11:15:37.055Z,1.20
2017-10-25T11:18:04.668Z,3.00
2017-10-25T11:20:32.267Z,2.80
2017-10-25T11:23:00.122Z,3.30
2017-10-25T11:25:27.693Z,3.47
2017-10-25T11:27:55.527Z,3.37
2017-10-25T11:30:23.153Z,2.43
2017-10-25T11:32:51.583Z,2.23
2017-10-25T11:35:19.793Z,4.60
2017-10-25T11:38:01.119Z,1.40
2017-10-25T11:40:29.954Z,1.23
2017-10-25T11:42:58.624Z,1.50
2017-10-25T11:45:26.189Z,1.20
2017-10-25T11:47:53.804Z,1.57
2017-10-25T11:50:22.125Z,2.87
2017-10-25T11:52:49.720Z,2.60
2017-10-25T11:55:18.216Z,1.67
2017-10-25T11:57:46.530Z,1.93
2017-10-25T12:00:14.110Z,3.07
2017-10-25T12:02:41.662Z,1.33
2017-10-25T12:05:09.265Z,2.97
2017-10-25T12:07:37.183Z,1.67
2017-10-25T12:10:04.999Z,1.27
2017-10-25T12:12:32.650Z,2.57
2017-10-25T12:15:01.362Z,2.17
2017-10-25T12:17:29.452Z,1.40
2017-10-25T12:19:56.977Z,3.07
2017-10-25T12:22:24.533Z,2.10
2017-10-25T12:24:52.758Z,2.30
2017-10-25T12:27:22.197Z,1.30
2017-10-25T12:29:50.156Z,2.47
2017-10-25T12:32:17.705Z,1.30
2017-10-25T12:34:45.257Z,4.63
2017-10-25T12:37:12.861Z,17.37
2017-10-25T12:39:40.406Z,2.33
2017-10-25T12:42:08.010Z,25.73
2017-10-25T12:44:35.574Z,6.73
2017-10-25T12:47:03.118Z,3.87
2017-10-25T12:49:30.884Z,1.83
2017-10-25T12:51:58.717Z,2.50
2017-10-25T12:54:27.082Z,3.10
2017-10-25T12:56:54.644Z,2.37
2017-10-25T12:59:22.207Z,2.53
2017-10-25T13:01:49.946Z,4.60
2017-10-25T13:04:18.783Z,3.13
2017-10-25T13:06:46.475Z,3.17
2017-10-25T13:09:14.017Z,2.10
2017-10-25T13:11:54.562Z,2.23
2017-10-25T13:14:38.543Z,2.33
2017-10-25T13:17:09.392Z,2.30
2017-10-25T13:19:36.941Z,2.37
2017-10-25T13:22:04.482Z,2.10
2017-10-25T13:24:32.642Z,3.47
2017-10-25T13:27:11.168Z,2.80
2017-10-25T13:29:39.329Z,3.10
2017-10-25T13:32:06.910Z,3.33
2017-10-25T13:34:34.466Z,2.13
2017-10-25T13:37:02.073Z,2.23
2017-10-25T13:39:29.633Z,1.80
2017-10-25T13:41:57.230Z,5.03
2017-10-25T13:44:24.814Z,2.10
2017-10-25T13:46:52.371Z,4.50
2017-10-25T13:49:19.996Z,1.17
2017-10-25T13:51:47.570Z,4.47
2017-10-25T13:54:16.217Z,2.13
2017-10-25T13:56:43.968Z,3.67
2017-10-25T13:59:11.524Z,2.30
2017-10-25T14:01:39.117Z,3.70
2017-10-25T14:04:06.661Z,5.20
2017-10-25T14:06:34.261Z,2.67
2017-10-25T14:09:01.836Z,2.37
2017-10-25T14:11:29.486Z,2.60
2017-10-25T14:13:58.137Z,5.23
2017-10-25T14:16:25.694Z,4.40
2017-10-25T14:18:53.317Z,4.13
2017-10-25T14:21:20.870Z,2.80
2017-10-25T14:23:48.459Z,3.83
2017-10-25T14:26:28.117Z,2.60
2017-10-25T14:28:55.777Z,4.17
2017-10-25T14:31:24.391Z,2.37
2017-10-25T14:33:53.110Z,2.93
2017-10-25T14:36:20.748Z,4.50
2017-10-25T14:38:49.125Z,2.67
2017-10-25T14:41:16.663Z,6.00
2017-10-25T14:43:45.026Z,5.50
2017-10-25T14:46:12.588Z,2.50
2017-10-25T14:48:40.215Z,3.93
2017-10-25T14:51:07.883Z,2.40
2017-10-25T14:53:35.442Z,5.27
2017-10-25T14:56:03.055Z,3.10
2017-10-25T14:58:32.215Z,3.23
2017-10-25T15:00:59.874Z,6.20
2017-10-25T15:03:27.732Z,4.43
2017-10-25T15:05:55.354Z,3.93
2017-10-25T15:08:23.829Z,3.43
2017-10-25T15:10:52.182Z,4.83
2017-10-25T15:13:19.926Z,3.30
2017-10-25T15:15:47.484Z,17.00
2017-10-25T15:18:15.023Z,8.60
2017-10-25T15:20:42.623Z,11.03
2017-10-25T15:23:10.193Z,17.93
2017-10-25T15:25:38.597Z,22.50
2017-10-25T15:28:06.154Z,7.13
2017-10-25T15:30:34.466Z,6.13
2017-10-25T15:33:02.070Z,7.43
2017-10-25T15:35:30.475Z,8.47
2017-10-25T15:37:58.091Z,6.63
2017-10-25T15:40:25.677Z,5.73
2017-10-25T15:42:53.995Z,10.93
2017-10-25T15:45:22.208Z,18.80
2017-10-25T15:47:49.775Z,7.37
2017-10-25T15:50:18.037Z,7.73
2017-10-25T15:52:45.612Z,3.70
2017-10-25T15:55:13.246Z,8.80
2017-10-25T15:57:40.864Z,5.23
2017-10-25T16:00:08.705Z,5.93
2017-10-25T16:02:36.695Z,5.33
2017-10-25T16:05:04.427Z,7.40
2017-10-25T16:07:33.053Z,3.43
2017-10-25T16:10:00.731Z,4.47
2017-10-25T16:12:28.489Z,2.87
2017-10-25T16:14:56.402Z,6.70
2017-10-25T16:17:24.028Z,4.27
2017-10-25T16:19:52.436Z,3.63
2017-10-25T16:22:20.206Z,5.07
2017-10-25T16:24:47.769Z,3.10
2017-10-25T16:27:15.714Z,8.80
2017-10-25T16:29:43.265Z,5.37
2017-10-25T16:32:11.538Z,3.77
2017-10-25T16:34:39.176Z,4.67
2017-10-25T16:37:06.709Z,5.00
2017-10-25T16:39:34.309Z,8.83
2017-10-25T16:42:02.203Z,3.67
2017-10-25T16:44:29.825Z,8.47
2017-10-25T16:46:57.524Z,8.40
2017-10-25T16:49:25.547Z,5.00
2017-10-25T16:51:53.924Z,8.73
2017-10-25T16:54:21.697Z,3.57
2017-10-25T16:56:49.246Z,8.03
2017-10-25T16:59:16.845Z,5.13
2017-10-25T17:01:44.401Z,11.83
2017-10-25T17:04:11.993Z,4.40
2017-10-25T17:06:42.003Z,7.77
2017-10-25T17:09:09.566Z,3.63
2017-10-25T17:11:37.333Z,4.13
2017-10-25T17:14:04.888Z,5.40
2017-10-25T17:16:32.909Z,3.47
2017-10-25T17:19:00.468Z,4.20
2017-10-25T17:21:28.071Z,4.87
2017-10-25T17:23:55.668Z,5.70
2017-10-25T17:26:24.099Z,5.07
2017-10-25T17:28:52.186Z,3.83
2017-10-25T17:31:19.742Z,4.17
2017-10-25T17:33:47.318Z,3.90
2017-10-25T17:36:14.988Z,4.50
2017-10-25T17:38:42.530Z,5.43
2017-10-25T17:41:10.134Z,4.13
2017-10-25T17:43:37.699Z,6.47
2017-10-25T17:46:06.139Z,5.23
2017-10-25T17:48:34.262Z,4.53
2017-10-25T17:51:02.001Z,5.83
2017-10-25T17:53:30.300Z,3.67
2017-10-25T17:55:57.969Z,4.43
2017-10-25T17:58:25.679Z,4.43
2017-10-25T18:00:53.476Z,5.20
2017-10-25T18:03:21.284Z,15.90
2017-10-25T18:05:49.163Z,6.37
2017-10-25T18:08:17.484Z,4.07
2017-10-25T18:10:45.141Z,4.13
2017-10-25T18:13:12.772Z,5.90
2017-10-25T18:15:40.412Z,7.17
2017-10-25T18:18:08.071Z,6.13
2017-10-25T18:20:35.639Z,5.17
2017-10-25T18:23:03.189Z,5.73
2017-10-25T18:25:30.796Z,4.83
2017-10-25T18:27:59.147Z,10.23
2017-10-25T18:30:26.778Z,5.67
2017-10-25T18:32:54.382Z,5.00
2017-10-25T18:35:21.950Z,5.33
2017-10-25T18:37:49.571Z,4.47
2017-10-25T18:40:17.674Z,5.50
2017-10-25T18:42:45.294Z,4.40
2017-10-25T18:45:13.715Z,5.47
2017-10-25T18:47:41.280Z,7.97
2017-10-25T18:50:08.905Z,4.23
2017-10-25T18:52:36.649Z,7.80
2017-10-25T18:55:04.254Z,8.80
2017-10-25T18:57:31.851Z,5.10
2017-10-25T18:59:59.416Z,7.40
2017-10-25T19:02:27.011Z,6.30
2017-10-25T19:04:54.580Z,6.10
2017-10-25T19:07:25.827Z,7.20
2017-10-25T19:09:53.561Z,6.40
2017-10-25T19:12:21.688Z,9.23
2017-10-25T19:14:49.287Z,18.73
2017-10-25T19:17:16.823Z,6.40
2017-10-25T19:19:44.441Z,15.27
2017-10-25T19:22:12.288Z,5.50
2017-10-25T19:24:41.707Z,6.03
2017-10-25T19:27:09.447Z,10.07
2017-10-25T19:29:37.019Z,5.93
2017-10-25T19:32:06.538Z,6.10
2017-10-25T19:34:34.170Z,10.93
2017-10-25T19:37:01.703Z,6.87
2017-10-25T19:39:29.304Z,15.47
2017-10-25T19:41:56.869Z,8.57
2017-10-25T19:44:25.125Z,5.70
2017-10-25T19:46:52.684Z,9.20
2017-10-25T19:49:20.438Z,8.40
2017-10-25T19:51:48.056Z,11.40
2017-10-25T19:54:15.597Z,11.27
2017-10-25T19:56:43.253Z,6.20
2017-10-25T19:59:10.821Z,6.77
2017-10-25T20:01:38.407Z,5.97
2017-10-25T20:04:06.009Z,6.33
2017-10-25T20:06:33.628Z,6.43
2017-10-25T20:09:02.398Z,5.73
2017-10-25T20:11:30.539Z,5.40
2017-10-25T20:13:58.124Z,11.10
2017-10-25T20:16:25.755Z,12.53
2017-10-25T20:18:53.318Z,7.23
2017-10-25T20:21:20.903Z,6.83
2017-10-25T20:23:48.460Z,6.20
2017-10-25T20:28:49.938Z,13.10
2017-10-25T20:31:17.497Z,7.13
2017-10-25T20:33:45.113Z,6.20
2017-10-25T20:36:12.718Z,8.83
2017-10-25T20:38:40.270Z,9.47
2017-10-25T20:41:07.918Z,6.20
2017-10-25T20:43:35.606Z,6.33
2017-10-25T20:46:03.211Z,5.80
2017-10-25T20:48:31.760Z,10.97
2017-10-25T20:50:59.370Z,9.63
2017-10-25T20:53:26.973Z,7.07
2017-10-25T20:55:54.508Z,5.20
2017-10-25T20:58:22.112Z,6.57
2017-10-25T21:00:50.434Z,7.00
2017-10-25T21:03:18.994Z,7.80
2017-10-25T21:05:46.718Z,7.00
2017-10-25T21:08:15.226Z,6.00
2017-10-25T21:10:43.814Z,16.23
2017-10-25T21:13:11.585Z,12.03
2017-10-25T21:15:39.957Z,5.30
2017-10-25T21:18:07.701Z,16.30
2017-10-25T21:20:36.342Z,10.43
2017-10-25T21:23:04.619Z,6.60
2017-10-25T21:25:33.436Z,10.30
2017-10-25T21:28:01.709Z,21.10
2017-10-25T21:30:30.549Z,7.90
2017-10-25T21:32:59.108Z,7.90
2017-10-25T21:35:29.230Z,7.90
2017-10-25T21:37:58.362Z,8.07
2017-10-25T21:40:29.100Z,15.47
2017-10-25T21:42:56.731Z,8.17
2017-10-25T21:45:25.294Z,7.43
2017-10-25T21:47:53.064Z,9.93
2017-10-25T21:50:21.508Z,13.40
2017-10-25T21:52:49.175Z,9.60
2017-10-25T21:55:17.022Z,11.10
2017-10-25T21:57:45.419Z,11.03
2017-10-25T22:00:13.408Z,8.30
2017-10-25T22:02:42.598Z,12.90
2017-10-25T22:05:10.209Z,11.80
2017-10-25T22:07:38.099Z,9.50
2017-10-25T22:10:05.944Z,13.37
2017-10-25T22:12:33.600Z,9.70
2017-10-25T22:15:01.524Z,7.50
2017-10-25T22:17:29.186Z,9.30
2017-10-25T22:19:57.567Z,8.20
2017-10-25T22:22:26.070Z,9.33
2017-10-25T22:24:54.836Z,10.03
2017-10-25T22:27:22.562Z,14.30
2017-10-25T22:29:50.317Z,11.20
2017-10-25T22:32:19.150Z,12.83
2017-10-25T22:34:47.984Z,11.70
2017-10-25T22:37:15.898Z,12.80
2017-10-25T22:39:44.241Z,16.13
2017-10-25T22:42:12.153Z,10.97
2017-10-25T22:44:39.995Z,11.93
2017-10-25T22:47:07.821Z,10.43
2017-10-25T22:49:36.751Z,13.47
2017-10-25T22:52:04.638Z,15.13
2017-10-25T22:54:33.074Z,13.77
2017-10-25T22:57:00.937Z,13.37
2017-10-25T22:59:30.647Z,14.37
2017-10-25T23:01:58.290Z,21.20
2017-10-25T23:04:25.834Z,15.40
2017-10-25T23:06:53.373Z,16.47
2017-10-25T23:09:21.021Z,23.90
2017-10-25T23:11:48.573Z,15.47
2017-10-25T23:14:16.217Z,15.23
2017-10-25T23:16:43.787Z,17.83
2017-10-25T23:19:11.369Z,19.80
2017-10-25T23:21:38.956Z,15.80
2017-10-25T23:24:07.266Z,19.37
2017-10-25T23:26:34.866Z,19.83
2017-10-25T23:29:02.571Z,16.87
2017-10-25T23:31:30.127Z,17.13
2017-10-25T23:33:57.773Z,21.10
2017-10-25T23:36:25.345Z,21.30
2017-10-25T23:38:52.973Z,17.43
2017-10-25T23:41:20.538Z,19.97
2017-10-25T23:43:48.106Z,14.63
2017-10-25T23:46:15.702Z,17.13
2017-10-25T23:48:43.250Z,16.63
2017-10-25T23:51:10.858Z,23.77
2017-10-25T23:53:38.422Z,18.83
2017-10-25T23:56:05.979Z,20.37
2017-10-25T23:58:33.590Z,21.80
